Retour classement

Votre classement

27°C
Orageux

30 juin 2001

10000

101 à 200
Scr Nom Prénom Club Temps Moy/Km Km/H A/N Cat Cl/Cat
101 BINDER Damien Sessenheim 00:39:55 03'59''50 15,03 1968 SEM 0061
102 CRIQUI Christophe Ettendorf 00:39:57 03'59''70 15,02 1965 SEM 0062
103 BRUBACHER Alfred Ostwald 00:40:00 04'00''00 15,00 1940 V3M 0002
104 KOPP Jean Claude Cpm Wasselonne 00:40:09 04'00''90 14,94 1952 V1M 0029
105 HAMROUN Mohamed Asptt Strasbourg 00:40:10 04'01''00 14,94 1956 V1M 0030
106 ALBASSER Gérard St Vincent de Paul 00:40:14 04'01''40 14,91 1949 V2M 0006
107 ISEMANN Claude Socomec 00:40:24 04'02''40 14,85 1963 SEM 0063
108 HEYBERGER Edgar Courir a Hasselfurth 00:40:26 04'02''60 14,84 1952 V1M 0031
109 HACKER Klaus Tv Eichstetten 00:40:27 04'02''70 14,83 1959 V1M 0032
110 WEISS Claude Aere Erstein 00:40:28 04'02''80 14,83 1970 SEM 0064
111 NEVES Jose Carlos Seebach 00:40:30 04'03''00 14,81 1965 SEM 0065
112 DELLINGER Jean Claude Courir a Hasselfurt 00:40:41 04'04''10 14,75 1959 V1M 0033
113 BUFFLER Christophe De Dietrich Thermique 00:40:42 04'04''20 14,74 1966 SEM 0066
114 HALTER Serge Asptt Strasbourg 00:40:51 04'05''10 14,69 1961 V1M 0034
115 PROVOST Yann Lilly France 00:40:55 04'05''50 14,66 1973 SEM 0067
116 WALTER Jean Claude Ascpam Strasbourg 00:40:57 04'05''70 14,65 1947 V2M 0007
117 DAS NEVES Miguel Asptt Strasbourg 00:40:58 04'05''80 14,65 1966 SEM 0068
118 SIMON Clement Molsheim 00:40:59 04'05''90 14,64 1968 SEM 0069
119 BOUE Sébastien Goersdorf 00:41:07 04'06''70 14,59 1983 JUM 0004
120 JUNG Bernard Asptt Strasbourg 00:41:10 04'07''00 14,57 1970 SEM 0070
121 BLAQUE Gérard Fnac 00:41:14 04'07''40 14,55 1951 V2M 0008
122 LADENBURGER Michel RT Schweighouse 00:41:18 04'07''80 14,53 1959 V1M 0035
123 GAREL Patrick Lsg Iffezheim 00:41:21 04'08''10 14,51 1954 V1M 0036
124 NAVIR Kenan Csb Barembach 00:41:25 04'08''50 14,49 1965 SEM 0071
125 WESTENHOEFFER Patrice Alsace Nord Athle 00:41:26 04'08''60 14,48 1969 SEM 0072
126 PIEDOUX Thierry Hindisheim 00:41:27 04'08''70 14,48 1960 V1M 0037
127 BLETTERER Claude Ina Roulements 00:41:33 04'09''30 14,44 1959 V1M 0038
128 SCHNOERRINGER Roger RT Schweighouse 00:41:35 04'09''50 14,43 1954 V1M 0039
129 BALTZ Jean Paul Brouderdorff 00:41:35 04'09''50 14,43 1961 V1M 0040
130 00:41:36 04'09''60 14,42 0001
131 SCHIELE Jacky As Gunther 00:41:37 04'09''70 14,42 1964 SEM 0073
132 GEIN Pierrot Schnoupy 00:41:39 04'09''90 14,41 1960 V1M 0041
133 LESSER Eric Aviron colmar 00:41:40 04'10''00 14,40 1968 SEM 0074
134 FLATRES Yann Fouday 00:41:41 04'10''10 14,39 1970 SEM 0075
135 PAULIN Edith Alsace Nord Athle 00:41:42 04'10''20 14,39 1950 V2F 0001
136 WOLFF Christophe Hopital Haguenau 00:41:43 04'10''30 14,38 1966 SEM 0076
137 KREMPP Yves Strasbourg 00:41:47 04'10''70 14,36 1960 V1M 0042
138 WURRY Sebastien Fc Matzenheim 00:41:49 04'10''90 14,35 1978 SEM 0077
139 MARGRAITTE Yves Asptt Strasbourg 00:41:51 04'11''10 14,34 1982 JUM 0005
140 DIETZ Andre Coop Alsace 00:41:54 04'11''40 14,32 1960 V1M 0043
141 KOCHER Christophe Strasbourg 00:41:57 04'11''70 14,30 1967 SEM 0078
142 BROSSARD Laurent Naveco Betschdorf 00:42:01 04'12''10 14,28 1961 V1M 0044
143 MARTIN Pierre Illkirch Graffenstad 00:42:04 04'12''40 14,26 1965 SEM 0079
144 ARON Martial Ina Roulements 00:42:06 04'12''60 14,25 1970 SEM 0080
145 SCHEID Grégory As Kesser 00:42:07 04'12''70 14,25 1975 SEM 0081
146 NAUS Bernard Bischwiller 00:42:10 04'13''00 14,23 1958 V1M 0045
147 VOEGEL Gilbert Aere Erstein 00:42:11 04'13''10 14,22 1955 V1M 0046
148 SCHOPP Bernard Schleithal 00:42:12 04'13''20 14,22 1953 V1M 0047
149 ECKERT Arnaud Fv Bodersveier 00:42:14 04'13''40 14,21 1977 SEM 0082
150 VOLTZENLOGEL Patrick Weyersheim 00:42:14 04'13''40 14,21 1960 V1M 0048
151 FENNINGER Marc Alsace Nord Athle 00:42:20 04'14''00 14,17 1961 V1M 0049
152 HAUSWIRTH Michel Seeknaeckes 00:42:23 04'14''30 14,16 1960 V1M 0050
153 MEISTHERTZHEIM Jean-Paul Koriko taekwendo 00:42:25 04'14''50 14,15 1956 V1M 0051
154 SIMONIN Jean Michel Weitbruch 00:42:26 04'14''60 14,14 1954 V1M 0052
155 HALTER Jean Claude Schirrhein 00:42:28 04'14''80 14,13 1971 SEM 0083
156 EHLES Joseph Steelcase Running 00:42:34 04'15''40 14,10 1953 V1M 0053
157 SCHEID Cédric Alsace Nord Athle 00:42:34 04'15''40 14,10 1977 SEM 0084
158 WIDIEZ Pascal Cst Saverne 00:42:34 04'15''40 14,10 1980 SEM 0085
159 LUDWIG Michel Bayer 00:42:35 04'15''50 14,09 1958 V1M 0054
160 SCHMITT Alain Ostwald 00:42:35 04'15''50 14,09 1967 SEM 0086
161 WENZEL Jean Jacques 3eme age 67 00:42:38 04'15''80 14,07 1951 V2M 0009
162 HASSANI Brahim 3eme age 67 00:42:39 04'15''90 14,07 1958 V1M 0055
163 BALAL Jaafar 3eme age 67 00:42:40 04'16''00 14,06 1951 V2M 0010
164 EHRHARD Dominique Stracel 00:42:43 04'16''30 14,05 1962 SEM 0087
165 OTENIN Gilbert Courir a Hasselfurt 00:42:44 04'16''40 14,04 1958 V1M 0056
166 GRIMM Yves Ac Centre Alsace 00:42:46 04'16''60 14,03 1965 SEM 0088
167 SCHUSTER Claude Sg Cronenbourg 00:42:47 04'16''70 14,02 1964 SEM 0089
168 POYET Christine Alsace Nord Athle 00:42:49 04'16''90 14,01 1982 JUF 0001
169 SCHWARTZMULLER Vincent ONF 57 00:42:51 04'17''10 14,00 1975 SEM 0090
170 BOULOC Yves Ingwiller 00:42:52 04'17''20 14,00 1963 SEM 0091
171 RICHERT Benoit Asl Printzheim 00:42:54 04'17''40 13,99 1950 V2M 0011
172 DESBOIS Julien Onf 57 00:42:55 04'17''50 13,98 1979 SEM 0092
173 NICOLAY Christian Individuel 00:42:56 04'17''60 13,98 1972 SEM 0093
174 GERVAIS Pascal Psg 00:42:59 04'17''90 13,96 1969 SEM 0094
175 MILESI Michel Cpm Wasselonne 00:43:02 04'18''20 13,94 1965 SEM 0095
176 BOULOU Jean Claude Bruker 00:43:09 04'18''90 13,90 1959 V1M 0057
177 SANCHEZ Eric Asptt Strasbourg 00:43:13 04'19''30 13,88 1967 SEM 0096
178 LAUTH Pascal Haguenau 00:43:15 04'19''50 13,87 1964 SEM 0097
179 ROSSELL Bruno Port Autonome 00:43:22 04'20''20 13,84 1961 V1M 0058
180 FRITZ Jean Marc Afcf Alsace 00:43:25 04'20''50 13,82 1966 SEM 0098
181 LOSTETTER Antoine Haguenau 00:43:30 04'21''00 13,79 1960 V1M 0059
182 KLEIN Simone Courir a Hasselfurt 00:43:31 04'21''10 13,79 1964 V0F 0001
183 BARABANSO Michel Ind 00:43:37 04'21''70 13,76 1962 SEM 0099
184 SCHATZ Christine Obernai 00:43:39 04'21''90 13,75 1965 V0F 0002
185 SIESS Rudy Schiltigheim 00:43:41 04'22''10 13,74 1940 V3M 0003
186 BLIN Serge Port Autonome 00:43:43 04'22''30 13,72 1962 SEM 0100
187 FUCHS Patrice Csnss Schirrhein 00:43:45 04'22''50 13,71 1971 SEM 0101
188 RUHLMANN Stéphane Fv Bodersveier 00:43:48 04'22''80 13,70 1977 SEM 0102
189 BIETH Bernard Basket St Jean Sav 00:43:52 04'23''20 13,68 1955 V1M 0060
190 SCHNEE Leonard General motors 00:43:55 04'23''50 13,66 1956 V1M 0061
191 RUBY Pascal Strasbourg 00:43:56 04'23''60 13,66 1962 SEM 0103
192 ROTT Florent Vc Eckwersheim 00:43:56 04'23''60 13,66 1957 V1M 0062
193 SCHILLING David Langensoultzbach 00:43:57 04'23''70 13,65 1968 SEM 0104
194 NETH Dominique Fv Bodersveier 00:44:01 04'24''10 13,63 1977 SEM 0105
195 VILLELA Jose 3eme age 67 00:44:03 04'24''30 13,62 1951 V2M 0012
196 ZEHNACKER Rosa RT Schweighouse 00:44:04 04'24''40 13,62 1962 V0F 0003
197 JOLY Frederic Delphi 00:44:05 04'24''50 13,61 1972 SEM 0106
198 KOEHL Daniel La Saline 00:44:06 04'24''60 13,61 1955 V1M 0063
199 ANTON Arsene Allenwiller 00:44:07 04'24''70 13,60 1971 SEM 0107
200 BALL Claude Aere Erstein 00:44:09 04'24''90 13,59 1955 V1M 0064
  

Le traitement informatique des résultats a été réalisé par M. USSELMANN Marcel et son équipe.

Pour nous contacter: Tél. 0388632385 ou nous écrire

nous écrire ?

Retour classement